sensor_id;sensor_type;location;lat;lon;timestamp;temperature;humidity
7030;DHT22;3556;53.500;10.176;2023-04-01T00:00:52;10.00;99.90
7030;DHT22;3556;53.500;10.176;2023-04-01T00:03:19;10.00;99.90
7030;DHT22;3556;53.500;10.176;2023-04-01T00:05:46;10.00;99.90
7030;DHT22;3556;53.500;10.176;2023-04-01T00:08:12;10.00;99.90
7030;DHT22;3556;53.500;10.176;2023-04-01T00:10:37;10.00;99.90
7030;DHT22;3556;53.500;10.176;2023-04-01T00:13:03;10.00;99.90
7030;DHT22;3556;53.500;10.176;2023-04-01T00:15:29;10.00;99.90
7030;DHT22;3556;53.500;10.176;2023-04-01T00:17:55;10.00;99.90
7030;DHT22;3556;53.500;10.176;2023-04-01T00:20:21;10.00;99.90
7030;DHT22;3556;53.500;10.176;2023-04-01T00:22:47;10.00;99.90
7030;DHT22;3556;53.500;10.176;2023-04-01T00:25:13;10.00;99.90
7030;DHT22;3556;53.500;10.176;2023-04-01T00:27:40;9.90;99.90
7030;DHT22;3556;53.500;10.176;2023-04-01T00:30:06;9.90;99.90
7030;DHT22;3556;53.500;10.176;2023-04-01T00:32:33;9.90;99.90
7030;DHT22;3556;53.500;10.176;2023-04-01T00:34:58;9.90;99.90
7030;DHT22;3556;53.500;10.176;2023-04-01T00:37:25;9.90;99.90
7030;DHT22;3556;53.500;10.176;2023-04-01T00:39:51;9.90;99.90
7030;DHT22;3556;53.500;10.176;2023-04-01T00:42:17;9.90;99.90
7030;DHT22;3556;53.500;10.176;2023-04-01T00:44:45;9.80;99.90
7030;DHT22;3556;53.500;10.176;2023-04-01T00:47:13;9.80;99.90
7030;DHT22;3556;53.500;10.176;2023-04-01T00:49:40;9.80;99.90
7030;DHT22;3556;53.500;10.176;2023-04-01T00:52:08;9.80;99.90
7030;DHT22;3556;53.500;10.176;2023-04-01T00:54:36;9.80;99.90
7030;DHT22;3556;53.500;10.176;2023-04-01T00:57:06;9.80;99.90
7030;DHT22;3556;53.500;10.176;2023-04-01T00:59:36;9.80;99.90
7030;DHT22;3556;53.500;10.176;2023-04-01T01:02:05;9.80;99.90
7030;DHT22;3556;53.500;10.176;2023-04-01T01:04:33;9.80;99.90
7030;DHT22;3556;53.500;10.176;2023-04-01T01:07:26;9.80;99.90
7030;DHT22;3556;53.500;10.176;2023-04-01T01:10:13;9.70;99.90
7030;DHT22;3556;53.500;10.176;2023-04-01T01:12:58;9.70;99.90
7030;DHT22;3556;53.500;10.176;2023-04-01T01:15:32;9.80;99.90
7030;DHT22;3556;53.500;10.176;2023-04-01T01:20:55;9.70;99.90
7030;DHT22;3556;53.500;10.176;2023-04-01T01:26:49;9.70;99.90
7030;DHT22;3556;53.500;10.176;2023-04-01T01:37:46;9.70;99.90
7030;DHT22;3556;53.500;10.176;2023-04-01T01:40:13;9.70;99.90
7030;DHT22;3556;53.500;10.176;2023-04-01T01:42:43;9.70;99.90
7030;DHT22;3556;53.500;10.176;2023-04-01T01:45:12;9.70;99.90
7030;DHT22;3556;53.500;10.176;2023-04-01T01:47:40;9.70;99.90
7030;DHT22;3556;53.500;10.176;2023-04-01T01:50:07;9.70;99.90
7030;DHT22;3556;53.500;10.176;2023-04-01T01:52:33;9.70;99.90
7030;DHT22;3556;53.500;10.176;2023-04-01T01:54:59;9.70;99.90
7030;DHT22;3556;53.500;10.176;2023-04-01T01:57:32;9.70;99.90
7030;DHT22;3556;53.500;10.176;2023-04-01T02:00:03;9.70;99.90
7030;DHT22;3556;53.500;10.176;2023-04-01T02:02:31;9.70;99.90
7030;DHT22;3556;53.500;10.176;2023-04-01T02:04:57;9.70;99.90
7030;DHT22;3556;53.500;10.176;2023-04-01T02:07:27;9.70;99.90
7030;DHT22;3556;53.500;10.176;2023-04-01T02:09:55;9.70;99.90
7030;DHT22;3556;53.500;10.176;2023-04-01T02:12:22;9.70;99.90
7030;DHT22;3556;53.500;10.176;2023-04-01T02:14:53;9.70;99.90
7030;DHT22;3556;53.500;10.176;2023-04-01T02:17:22;9.70;99.90
7030;DHT22;3556;53.500;10.176;2023-04-01T02:20:11;9.70;99.90
7030;DHT22;3556;53.500;10.176;2023-04-01T02:22:42;9.70;99.90
7030;DHT22;3556;53.500;10.176;2023-04-01T02:25:12;9.70;99.90
7030;DHT22;3556;53.500;10.176;2023-04-01T02:27:40;9.70;99.90
7030;DHT22;3556;53.500;10.176;2023-04-01T02:30:08;9.70;99.90
7030;DHT22;3556;53.500;10.176;2023-04-01T02:32:35;9.70;99.90
7030;DHT22;3556;53.500;10.176;2023-04-01T02:35:07;9.70;99.90
7030;DHT22;3556;53.500;10.176;2023-04-01T02:37:34;9.70;99.90
7030;DHT22;3556;53.500;10.176;2023-04-01T02:40:04;9.70;99.90
7030;DHT22;3556;53.500;10.176;2023-04-01T02:42:32;9.70;99.90
7030;DHT22;3556;53.500;10.176;2023-04-01T02:44:57;9.70;99.90
7030;DHT22;3556;53.500;10.176;2023-04-01T02:47:23;9.70;99.90
7030;DHT22;3556;53.500;10.176;2023-04-01T02:49:48;9.70;99.90
7030;DHT22;3556;53.500;10.176;2023-04-01T02:52:14;9.60;99.90
7030;DHT22;3556;53.500;10.176;2023-04-01T02:54:40;9.70;99.90
7030;DHT22;3556;53.500;10.176;2023-04-01T02:57:06;9.60;99.90
7030;DHT22;3556;53.500;10.176;2023-04-01T02:59:31;9.60;99.90
7030;DHT22;3556;53.500;10.176;2023-04-01T03:01:57;9.60;99.90
7030;DHT22;3556;53.500;10.176;2023-04-01T03:04:23;9.60;99.90
7030;DHT22;3556;53.500;10.176;2023-04-01T03:06:48;9.60;99.90
7030;DHT22;3556;53.500;10.176;2023-04-01T03:09:14;9.70;99.90
7030;DHT22;3556;53.500;10.176;2023-04-01T03:11:40;9.70;99.90
7030;DHT22;3556;53.500;10.176;2023-04-01T03:14:06;9.60;99.90
7030;DHT22;3556;53.500;10.176;2023-04-01T03:16:32;9.70;99.90
7030;DHT22;3556;53.500;10.176;2023-04-01T03:18:58;9.70;99.90
7030;DHT22;3556;53.500;10.176;2023-04-01T03:21:25;9.70;99.90
7030;DHT22;3556;53.500;10.176;2023-04-01T03:23:51;9.70;99.90
7030;DHT22;3556;53.500;10.176;2023-04-01T03:26:17;9.60;99.90
7030;DHT22;3556;53.500;10.176;2023-04-01T03:28:43;9.60;99.90
7030;DHT22;3556;53.500;10.176;2023-04-01T03:31:09;9.60;99.90
7030;DHT22;3556;53.500;10.176;2023-04-01T03:33:35;9.60;99.90
7030;DHT22;3556;53.500;10.176;2023-04-01T03:36:01;9.60;99.90
7030;DHT22;3556;53.500;10.176;2023-04-01T03:38:26;9.60;99.90
7030;DHT22;3556;53.500;10.176;2023-04-01T03:40:52;9.60;99.90
7030;DHT22;3556;53.500;10.176;2023-04-01T03:43:17;9.60;99.90
7030;DHT22;3556;53.500;10.176;2023-04-01T03:45:47;9.60;99.90
7030;DHT22;3556;53.500;10.176;2023-04-01T03:48:14;9.60;99.90
7030;DHT22;3556;53.500;10.176;2023-04-01T03:50:40;9.60;99.90
7030;DHT22;3556;53.500;10.176;2023-04-01T03:53:06;9.60;99.90
7030;DHT22;3556;53.500;10.176;2023-04-01T03:55:32;9.60;99.90
7030;DHT22;3556;53.500;10.176;2023-04-01T03:57:58;9.60;99.90
7030;DHT22;3556;53.500;10.176;2023-04-01T04:00:23;9.60;99.90
7030;DHT22;3556;53.500;10.176;2023-04-01T04:02:49;9.60;99.90
7030;DHT22;3556;53.500;10.176;2023-04-01T04:05:15;9.60;99.90
7030;DHT22;3556;53.500;10.176;2023-04-01T04:07:41;9.60;99.90
7030;DHT22;3556;53.500;10.176;2023-04-01T04:10:07;9.60;99.90
7030;DHT22;3556;53.500;10.176;2023-04-01T04:12:32;9.60;99.90
7030;DHT22;3556;53.500;10.176;2023-04-01T04:14:58;9.60;99.90
7030;DHT22;3556;53.500;10.176;2023-04-01T04:17:24;9.60;99.90
7030;DHT22;3556;53.500;10.176;2023-04-01T04:19:49;9.60;99.90
7030;DHT22;3556;53.500;10.176;2023-04-01T04:22:15;9.60;99.90
7030;DHT22;3556;53.500;10.176;2023-04-01T04:24:40;9.60;99.90
7030;DHT22;3556;53.500;10.176;2023-04-01T04:27:06;9.60;99.90
7030;DHT22;3556;53.500;10.176;2023-04-01T04:29:31;9.60;99.90
7030;DHT22;3556;53.500;10.176;2023-04-01T04:31:57;9.60;99.90
7030;DHT22;3556;53.500;10.176;2023-04-01T04:34:23;9.60;99.90
7030;DHT22;3556;53.500;10.176;2023-04-01T04:36:48;9.60;99.90
7030;DHT22;3556;53.500;10.176;2023-04-01T04:39:15;9.60;99.90
7030;DHT22;3556;53.500;10.176;2023-04-01T04:41:40;9.60;99.90
7030;DHT22;3556;53.500;10.176;2023-04-01T04:44:06;9.60;99.90
7030;DHT22;3556;53.500;10.176;2023-04-01T04:46:32;9.60;99.90
7030;DHT22;3556;53.500;10.176;2023-04-01T04:48:57;9.60;99.90
7030;DHT22;3556;53.500;10.176;2023-04-01T04:51:23;9.50;99.90
7030;DHT22;3556;53.500;10.176;2023-04-01T04:53:49;9.60;99.90
7030;DHT22;3556;53.500;10.176;2023-04-01T04:56:19;9.60;99.90
7030;DHT22;3556;53.500;10.176;2023-04-01T04:58:46;9.60;99.90
7030;DHT22;3556;53.500;10.176;2023-04-01T05:01:14;9.60;99.90
7030;DHT22;3556;53.500;10.176;2023-04-01T05:03:41;9.60;99.90
7030;DHT22;3556;53.500;10.176;2023-04-01T05:06:08;9.60;99.90
7030;DHT22;3556;53.500;10.176;2023-04-01T05:08:34;9.60;99.90
7030;DHT22;3556;53.500;10.176;2023-04-01T05:11:01;9.60;99.90
7030;DHT22;3556;53.500;10.176;2023-04-01T05:13:27;9.60;99.90
7030;DHT22;3556;53.500;10.176;2023-04-01T05:15:53;9.60;99.90
7030;DHT22;3556;53.500;10.176;2023-04-01T05:18:19;9.60;99.90
7030;DHT22;3556;53.500;10.176;2023-04-01T05:20:53;9.60;99.90
7030;DHT22;3556;53.500;10.176;2023-04-01T05:23:20;9.60;99.90
7030;DHT22;3556;53.500;10.176;2023-04-01T05:25:49;9.60;99.90
7030;DHT22;3556;53.500;10.176;2023-04-01T05:28:16;9.60;99.90
7030;DHT22;3556;53.500;10.176;2023-04-01T05:30:43;9.60;99.90
7030;DHT22;3556;53.500;10.176;2023-04-01T05:33:09;9.60;99.90
7030;DHT22;3556;53.500;10.176;2023-04-01T05:35:35;9.60;99.90
7030;DHT22;3556;53.500;10.176;2023-04-01T05:38:01;9.60;99.90
7030;DHT22;3556;53.500;10.176;2023-04-01T05:40:28;9.60;99.90
7030;DHT22;3556;53.500;10.176;2023-04-01T05:42:53;9.60;99.90
7030;DHT22;3556;53.500;10.176;2023-04-01T05:45:19;9.60;99.90
7030;DHT22;3556;53.500;10.176;2023-04-01T05:47:45;9.60;99.90
7030;DHT22;3556;53.500;10.176;2023-04-01T05:50:11;9.60;99.90
7030;DHT22;3556;53.500;10.176;2023-04-01T05:52:37;9.60;99.90
7030;DHT22;3556;53.500;10.176;2023-04-01T05:55:04;9.60;99.90
7030;DHT22;3556;53.500;10.176;2023-04-01T05:57:30;9.60;99.90
7030;DHT22;3556;53.500;10.176;2023-04-01T05:59:56;9.50;99.90
7030;DHT22;3556;53.500;10.176;2023-04-01T06:02:22;9.40;99.90
7030;DHT22;3556;53.500;10.176;2023-04-01T06:04:48;9.30;99.90
7030;DHT22;3556;53.500;10.176;2023-04-01T06:07:15;9.10;99.90
7030;DHT22;3556;53.500;10.176;2023-04-01T06:09:42;9.00;99.90
7030;DHT22;3556;53.500;10.176;2023-04-01T06:23:01;8.50;99.90
7030;DHT22;3556;53.500;10.176;2023-04-01T06:28:38;8.30;99.90
7030;DHT22;3556;53.500;10.176;2023-04-01T06:31:24;8.30;99.90
7030;DHT22;3556;53.500;10.176;2023-04-01T06:45:01;8.10;99.90
7030;DHT22;3556;53.500;10.176;2023-04-01T06:51:04;8.00;99.90
7030;DHT22;3556;53.500;10.176;2023-04-01T06:53:54;7.90;99.90
7030;DHT22;3556;53.500;10.176;2023-04-01T06:56:24;7.90;99.90
7030;DHT22;3556;53.500;10.176;2023-04-01T06:58:59;7.80;99.90
7030;DHT22;3556;53.500;10.176;2023-04-01T07:01:37;7.80;99.90
7030;DHT22;3556;53.500;10.176;2023-04-01T07:04:06;7.70;99.90
7030;DHT22;3556;53.500;10.176;2023-04-01T07:06:38;7.70;99.90
7030;DHT22;3556;53.500;10.176;2023-04-01T07:09:19;7.60;99.90
7030;DHT22;3556;53.500;10.176;2023-04-01T07:11:46;7.60;99.90
7030;DHT22;3556;53.500;10.176;2023-04-01T07:14:25;7.70;99.90
7030;DHT22;3556;53.500;10.176;2023-04-01T07:17:22;7.50;99.90
7030;DHT22;3556;53.500;10.176;2023-04-01T07:19:54;7.50;99.90
7030;DHT22;3556;53.500;10.176;2023-04-01T07:22:36;7.40;99.90
7030;DHT22;3556;53.500;10.176;2023-04-01T07:25:25;7.40;99.90
7030;DHT22;3556;53.500;10.176;2023-04-01T07:27:59;7.40;99.90
7030;DHT22;3556;53.500;10.176;2023-04-01T07:30:30;7.40;99.90
7030;DHT22;3556;53.500;10.176;2023-04-01T07:33:16;7.40;99.90
7030;DHT22;3556;53.500;10.176;2023-04-01T07:38:59;7.30;99.90
7030;DHT22;3556;53.500;10.176;2023-04-01T07:49:51;7.30;99.90
7030;DHT22;3556;53.500;10.176;2023-04-01T07:52:25;7.30;99.90
7030;DHT22;3556;53.500;10.176;2023-04-01T07:57:37;7.30;99.90
7030;DHT22;3556;53.500;10.176;2023-04-01T08:00:13;7.30;99.90
7030;DHT22;3556;53.500;10.176;2023-04-01T08:05:27;7.30;99.90
7030;DHT22;3556;53.500;10.176;2023-04-01T08:08:12;7.30;99.90
7030;DHT22;3556;53.500;10.176;2023-04-01T08:13:36;7.20;99.90
7030;DHT22;3556;53.500;10.176;2023-04-01T08:16:16;7.20;99.90
7030;DHT22;3556;53.500;10.176;2023-04-01T08:21:24;7.20;99.90
7030;DHT22;3556;53.500;10.176;2023-04-01T08:24:07;7.30;99.90
7030;DHT22;3556;53.500;10.176;2023-04-01T08:26:39;7.20;99.90
7030;DHT22;3556;53.500;10.176;2023-04-01T08:35:26;7.10;99.90
7030;DHT22;3556;53.500;10.176;2023-04-01T08:37:22;7.10;99.90
7030;DHT22;3556;53.500;10.176;2023-04-01T08:40:16;7.10;99.90
7030;DHT22;3556;53.500;10.176;2023-04-01T08:54:19;7.20;99.90
7030;DHT22;3556;53.500;10.176;2023-04-01T09:10:08;7.20;99.90
7030;DHT22;3556;53.500;10.176;2023-04-01T09:31:46;7.20;99.90
7030;DHT22;3556;53.500;10.176;2023-04-01T09:37:35;7.30;99.90
7030;DHT22;3556;53.500;10.176;2023-04-01T09:40:37;7.40;99.90
7030;DHT22;3556;53.500;10.176;2023-04-01T09:43:25;7.40;99.90
7030;DHT22;3556;53.500;10.176;2023-04-01T09:53:48;7.30;99.90
7030;DHT22;3556;53.500;10.176;2023-04-01T09:56:44;7.30;99.90
7030;DHT22;3556;53.500;10.176;2023-04-01T10:13:34;7.30;99.90
7030;DHT22;3556;53.500;10.176;2023-04-01T10:44:11;7.80;99.90
7030;DHT22;3556;53.500;10.176;2023-04-01T11:15:31;7.70;99.90
7030;DHT22;3556;53.500;10.176;2023-04-01T11:21:18;7.80;99.90
7030;DHT22;3556;53.500;10.176;2023-04-01T11:23:58;7.70;99.90
7030;DHT22;3556;53.500;10.176;2023-04-01T11:44:18;7.80;99.90
7030;DHT22;3556;53.500;10.176;2023-04-01T11:47:10;7.70;99.90
7030;DHT22;3556;53.500;10.176;2023-04-01T11:55:15;7.70;99.90
7030;DHT22;3556;53.500;10.176;2023-04-01T12:06:21;7.40;99.90
7030;DHT22;3556;53.500;10.176;2023-04-01T12:09:01;7.40;99.90
7030;DHT22;3556;53.500;10.176;2023-04-01T12:11:38;7.40;99.90
7030;DHT22;3556;53.500;10.176;2023-04-01T12:27:35;7.50;99.90
7030;DHT22;3556;53.500;10.176;2023-04-01T12:35:55;7.40;99.90
7030;DHT22;3556;53.500;10.176;2023-04-01T12:38:47;7.30;99.90
7030;DHT22;3556;53.500;10.176;2023-04-01T12:55:38;7.30;99.90
7030;DHT22;3556;53.500;10.176;2023-04-01T13:12:34;7.20;99.90
7030;DHT22;3556;53.500;10.176;2023-04-01T13:28:43;7.10;99.90
7030;DHT22;3556;53.500;10.176;2023-04-01T13:39:39;6.90;99.90
7030;DHT22;3556;53.500;10.176;2023-04-01T13:42:27;6.80;99.90
7030;DHT22;3556;53.500;10.176;2023-04-01T13:45:34;6.70;99.90
7030;DHT22;3556;53.500;10.176;2023-04-01T14:01:41;7.00;99.90
7030;DHT22;3556;53.500;10.176;2023-04-01T14:12:09;6.80;99.90
7030;DHT22;3556;53.500;10.176;2023-04-01T14:14:54;6.80;99.90
7030;DHT22;3556;53.500;10.176;2023-04-01T14:17:24;6.70;99.90
7030;DHT22;3556;53.500;10.176;2023-04-01T14:31:41;6.60;99.90
7030;DHT22;3556;53.500;10.176;2023-04-01T14:34:22;6.60;99.90
7030;DHT22;3556;53.500;10.176;2023-04-01T14:37:12;6.60;99.90
7030;DHT22;3556;53.500;10.176;2023-04-01T14:40:00;6.50;99.90
7030;DHT22;3556;53.500;10.176;2023-04-01T14:48:21;6.50;99.90
7030;DHT22;3556;53.500;10.176;2023-04-01T14:50:51;6.50;99.90
7030;DHT22;3556;53.500;10.176;2023-04-01T14:55:52;6.40;99.90
7030;DHT22;3556;53.500;10.176;2023-04-01T14:58:21;6.40;99.90
7030;DHT22;3556;53.500;10.176;2023-04-01T15:10:21;6.30;99.90
7030;DHT22;3556;53.500;10.176;2023-04-01T15:16:11;6.20;99.90
7030;DHT22;3556;53.500;10.176;2023-04-01T15:21:44;6.20;99.90
7030;DHT22;3556;53.500;10.176;2023-04-01T15:51:38;5.80;99.90
7030;DHT22;3556;53.500;10.176;2023-04-01T16:02:30;5.60;99.90
7030;DHT22;3556;53.500;10.176;2023-04-01T16:05:23;5.60;99.90
7030;DHT22;3556;53.500;10.176;2023-04-01T16:19:28;5.40;99.90
7030;DHT22;3556;53.500;10.176;2023-04-01T16:22:40;5.40;99.90
7030;DHT22;3556;53.500;10.176;2023-04-01T16:25:20;5.40;99.90
7030;DHT22;3556;53.500;10.176;2023-04-01T16:31:00;5.30;99.90
7030;DHT22;3556;53.500;10.176;2023-04-01T16:45:32;5.20;99.90
7030;DHT22;3556;53.500;10.176;2023-04-01T16:47:35;5.20;99.90
7030;DHT22;3556;53.500;10.176;2023-04-01T16:52:54;5.10;99.90
7030;DHT22;3556;53.500;10.176;2023-04-01T16:55:55;5.10;99.90
7030;DHT22;3556;53.500;10.176;2023-04-01T16:58:37;5.00;99.90
7030;DHT22;3556;53.500;10.176;2023-04-01T17:01:21;5.00;99.90
7030;DHT22;3556;53.500;10.176;2023-04-01T17:03:53;4.90;99.90
7030;DHT22;3556;53.500;10.176;2023-04-01T17:06:31;4.90;99.90
7030;DHT22;3556;53.500;10.176;2023-04-01T17:22:58;4.70;99.90
7030;DHT22;3556;53.500;10.176;2023-04-01T17:25:34;4.70;99.90
7030;DHT22;3556;53.500;10.176;2023-04-01T17:33:48;4.60;99.90
7030;DHT22;3556;53.500;10.176;2023-04-01T17:36:43;4.60;99.90
7030;DHT22;3556;53.500;10.176;2023-04-01T17:44:48;4.50;99.90
7030;DHT22;3556;53.500;10.176;2023-04-01T17:47:31;4.50;99.90
7030;DHT22;3556;53.500;10.176;2023-04-01T17:50:21;4.50;99.90
7030;DHT22;3556;53.500;10.176;2023-04-01T17:55:50;4.50;99.90
7030;DHT22;3556;53.500;10.176;2023-04-01T17:58:22;4.50;99.90
7030;DHT22;3556;53.500;10.176;2023-04-01T18:07:20;4.50;99.90
7030;DHT22;3556;53.500;10.176;2023-04-01T18:23:26;4.50;99.90
7030;DHT22;3556;53.500;10.176;2023-04-01T18:26:06;4.40;99.90
7030;DHT22;3556;53.500;10.176;2023-04-01T18:31:32;4.40;99.90
7030;DHT22;3556;53.500;10.176;2023-04-01T18:34:18;4.40;99.90
7030;DHT22;3556;53.500;10.176;2023-04-01T18:37:19;4.30;99.90
7030;DHT22;3556;53.500;10.176;2023-04-01T18:39:58;4.30;99.90
7030;DHT22;3556;53.500;10.176;2023-04-01T18:47:56;4.20;99.90
7030;DHT22;3556;53.500;10.176;2023-04-01T18:56:30;4.10;99.90
7030;DHT22;3556;53.500;10.176;2023-04-01T18:59:08;4.10;99.90
7030;DHT22;3556;53.500;10.176;2023-04-01T19:01:51;4.10;99.90
7030;DHT22;3556;53.500;10.176;2023-04-01T19:04:52;4.10;99.90
7030;DHT22;3556;53.500;10.176;2023-04-01T19:10:14;4.00;99.90
7030;DHT22;3556;53.500;10.176;2023-04-01T19:15:24;4.00;99.90
7030;DHT22;3556;53.500;10.176;2023-04-01T19:20:51;3.90;99.90
7030;DHT22;3556;53.500;10.176;2023-04-01T19:23:39;3.90;99.90
7030;DHT22;3556;53.500;10.176;2023-04-01T19:40:54;3.70;99.90
7030;DHT22;3556;53.500;10.176;2023-04-01T19:46:18;3.60;99.90
7030;DHT22;3556;53.500;10.176;2023-04-01T19:51:24;3.50;99.90
7030;DHT22;3556;53.500;10.176;2023-04-01T19:56:34;3.50;99.90
7030;DHT22;3556;53.500;10.176;2023-04-01T20:04:28;3.30;99.90
7030;DHT22;3556;53.500;10.176;2023-04-01T20:06:57;3.30;99.90
7030;DHT22;3556;53.500;10.176;2023-04-01T20:15:33;3.10;99.90
7030;DHT22;3556;53.500;10.176;2023-04-01T20:18:02;3.10;99.90
7030;DHT22;3556;53.500;10.176;2023-04-01T20:20:31;3.00;99.90
7030;DHT22;3556;53.500;10.176;2023-04-01T20:23:24;3.00;99.90
7030;DHT22;3556;53.500;10.176;2023-04-01T20:25:57;2.90;99.90
7030;DHT22;3556;53.500;10.176;2023-04-01T20:31:40;2.80;99.90
7030;DHT22;3556;53.500;10.176;2023-04-01T20:37:32;2.80;99.90
7030;DHT22;3556;53.500;10.176;2023-04-01T20:51:04;2.60;99.90
7030;DHT22;3556;53.500;10.176;2023-04-01T20:53:51;2.50;99.90
7030;DHT22;3556;53.500;10.176;2023-04-01T21:02:13;2.40;99.90
7030;DHT22;3556;53.500;10.176;2023-04-01T21:07:40;2.40;99.90
7030;DHT22;3556;53.500;10.176;2023-04-01T21:13:04;2.30;99.90
7030;DHT22;3556;53.500;10.176;2023-04-01T21:24:35;2.20;99.90
7030;DHT22;3556;53.500;10.176;2023-04-01T21:30:01;2.20;99.90
7030;DHT22;3556;53.500;10.176;2023-04-01T21:41:03;2.10;99.90
7030;DHT22;3556;53.500;10.176;2023-04-01T21:46:19;1.90;99.90
7030;DHT22;3556;53.500;10.176;2023-04-01T22:00:38;1.80;99.90
7030;DHT22;3556;53.500;10.176;2023-04-01T22:25:27;1.50;99.90
7030;DHT22;3556;53.500;10.176;2023-04-01T22:28:00;1.50;99.90
7030;DHT22;3556;53.500;10.176;2023-04-01T22:30:50;1.60;99.90
7030;DHT22;3556;53.500;10.176;2023-04-01T22:39:14;1.50;99.90
7030;DHT22;3556;53.500;10.176;2023-04-01T22:42:01;1.50;99.90
7030;DHT22;3556;53.500;10.176;2023-04-01T22:47:29;1.50;99.90
7030;DHT22;3556;53.500;10.176;2023-04-01T22:52:47;1.50;99.90
7030;DHT22;3556;53.500;10.176;2023-04-01T22:55:27;1.50;99.90
7030;DHT22;3556;53.500;10.176;2023-04-01T23:00:26;1.50;99.90
7030;DHT22;3556;53.500;10.176;2023-04-01T23:05:44;1.40;99.90
7030;DHT22;3556;53.500;10.176;2023-04-01T23:19:28;1.30;99.90
7030;DHT22;3556;53.500;10.176;2023-04-01T23:22:18;1.30;99.90
7030;DHT22;3556;53.500;10.176;2023-04-01T23:24:55;1.40;99.90
7030;DHT22;3556;53.500;10.176;2023-04-01T23:27:30;1.30;99.90
7030;DHT22;3556;53.500;10.176;2023-04-01T23:30:01;1.30;99.90
7030;DHT22;3556;53.500;10.176;2023-04-01T23:32:27;1.30;99.90
7030;DHT22;3556;53.500;10.176;2023-04-01T23:34:55;1.30;99.90
7030;DHT22;3556;53.500;10.176;2023-04-01T23:37:23;1.30;99.90
7030;DHT22;3556;53.500;10.176;2023-04-01T23:39:53;1.30;99.90
7030;DHT22;3556;53.500;10.176;2023-04-01T23:42:31;1.30;99.90
7030;DHT22;3556;53.500;10.176;2023-04-01T23:45:15;1.20;99.90
7030;DHT22;3556;53.500;10.176;2023-04-01T23:47:43;1.20;99.90
7030;DHT22;3556;53.500;10.176;2023-04-01T23:50:16;1.10;99.90
7030;DHT22;3556;53.500;10.176;2023-04-01T23:52:47;1.10;99.90
7030;DHT22;3556;53.500;10.176;2023-04-01T23:55:22;1.10;99.90
7030;DHT22;3556;53.500;10.176;2023-04-01T23:58:21;1.20;99.90
